sensor_id;sensor_type;location;lat;lon;timestamp;temperature;humidity
65044;DHT22;51617;48.158;16.464;2023-03-20T00:01:15;8.40;87.60
65044;DHT22;51617;48.158;16.464;2023-03-20T00:03:41;8.30;88.00
65044;DHT22;51617;48.158;16.464;2023-03-20T00:06:19;8.20;88.70
65044;DHT22;51617;48.158;16.464;2023-03-20T00:08:45;8.10;88.70
65044;DHT22;51617;48.158;16.464;2023-03-20T00:11:32;8.10;89.60
65044;DHT22;51617;48.158;16.464;2023-03-20T00:14:00;8.10;89.70
65044;DHT22;51617;48.158;16.464;2023-03-20T00:16:30;8.20;89.60
65044;DHT22;51617;48.158;16.464;2023-03-20T00:18:56;8.20;89.30
65044;DHT22;51617;48.158;16.464;2023-03-20T00:21:23;8.30;89.50
65044;DHT22;51617;48.158;16.464;2023-03-20T00:23:48;8.30;89.40
65044;DHT22;51617;48.158;16.464;2023-03-20T00:26:15;8.40;89.40
65044;DHT22;51617;48.158;16.464;2023-03-20T00:28:46;8.50;89.40
65044;DHT22;51617;48.158;16.464;2023-03-20T00:31:30;8.60;89.50
65044;DHT22;51617;48.158;16.464;2023-03-20T00:33:58;8.80;88.90
65044;DHT22;51617;48.158;16.464;2023-03-20T00:36:25;8.80;88.30
65044;DHT22;51617;48.158;16.464;2023-03-20T00:38:52;8.80;88.30
65044;DHT22;51617;48.158;16.464;2023-03-20T00:43:52;8.60;87.70
65044;DHT22;51617;48.158;16.464;2023-03-20T00:46:19;8.40;87.90
65044;DHT22;51617;48.158;16.464;2023-03-20T00:48:46;8.40;88.30
65044;DHT22;51617;48.158;16.464;2023-03-20T00:51:12;8.40;88.70
65044;DHT22;51617;48.158;16.464;2023-03-20T00:53:38;8.50;89.40
65044;DHT22;51617;48.158;16.464;2023-03-20T00:56:04;8.70;89.00
65044;DHT22;51617;48.158;16.464;2023-03-20T00:58:30;8.70;88.50
65044;DHT22;51617;48.158;16.464;2023-03-20T01:00:56;8.60;88.30
65044;DHT22;51617;48.158;16.464;2023-03-20T01:03:24;8.50;88.40
65044;DHT22;51617;48.158;16.464;2023-03-20T01:05:50;8.40;88.80
65044;DHT22;51617;48.158;16.464;2023-03-20T01:08:19;8.30;89.10
65044;DHT22;51617;48.158;16.464;2023-03-20T01:10:47;8.30;89.30
65044;DHT22;51617;48.158;16.464;2023-03-20T01:15:47;8.40;89.30
65044;DHT22;51617;48.158;16.464;2023-03-20T01:18:15;8.40;89.20
65044;DHT22;51617;48.158;16.464;2023-03-20T01:20:42;8.40;89.10
65044;DHT22;51617;48.158;16.464;2023-03-20T01:23:08;8.30;89.20
65044;DHT22;51617;48.158;16.464;2023-03-20T01:25:34;8.30;89.60
65044;DHT22;51617;48.158;16.464;2023-03-20T01:28:01;8.20;90.00
65044;DHT22;51617;48.158;16.464;2023-03-20T01:30:30;8.10;90.20
65044;DHT22;51617;48.158;16.464;2023-03-20T01:32:57;8.10;90.20
65044;DHT22;51617;48.158;16.464;2023-03-20T01:35:26;8.10;90.30
65044;DHT22;51617;48.158;16.464;2023-03-20T01:37:53;8.10;90.30
65044;DHT22;51617;48.158;16.464;2023-03-20T01:42:46;8.10;90.60
65044;DHT22;51617;48.158;16.464;2023-03-20T01:45:17;8.20;90.40
65044;DHT22;51617;48.158;16.464;2023-03-20T01:47:44;8.10;90.40
65044;DHT22;51617;48.158;16.464;2023-03-20T01:52:41;8.00;90.30
65044;DHT22;51617;48.158;16.464;2023-03-20T01:55:07;7.90;90.50
65044;DHT22;51617;48.158;16.464;2023-03-20T01:57:32;7.90;90.70
65044;DHT22;51617;48.158;16.464;2023-03-20T02:00:05;8.00;90.80
65044;DHT22;51617;48.158;16.464;2023-03-20T02:02:34;8.10;90.70
65044;DHT22;51617;48.158;16.464;2023-03-20T02:05:07;8.00;90.60
65044;DHT22;51617;48.158;16.464;2023-03-20T02:07:34;8.10;90.50
65044;DHT22;51617;48.158;16.464;2023-03-20T02:10:03;8.00;90.40
65044;DHT22;51617;48.158;16.464;2023-03-20T02:12:30;7.90;90.70
65044;DHT22;51617;48.158;16.464;2023-03-20T02:14:56;7.90;90.90
65044;DHT22;51617;48.158;16.464;2023-03-20T02:17:23;8.00;90.80
65044;DHT22;51617;48.158;16.464;2023-03-20T02:26:06;7.90;90.80
65044;DHT22;51617;48.158;16.464;2023-03-20T02:32:01;7.80;90.70
65044;DHT22;51617;48.158;16.464;2023-03-20T02:40:11;7.80;91.20
65044;DHT22;51617;48.158;16.464;2023-03-20T02:48:14;7.70;91.10
65044;DHT22;51617;48.158;16.464;2023-03-20T02:50:47;7.80;91.10
65044;DHT22;51617;48.158;16.464;2023-03-20T02:53:34;7.70;91.20
65044;DHT22;51617;48.158;16.464;2023-03-20T02:59:06;7.40;91.70
65044;DHT22;51617;48.158;16.464;2023-03-20T03:01:41;7.30;92.00
65044;DHT22;51617;48.158;16.464;2023-03-20T03:04:11;7.40;92.00
65044;DHT22;51617;48.158;16.464;2023-03-20T03:06:41;7.50;91.90
65044;DHT22;51617;48.158;16.464;2023-03-20T03:09:29;7.50;91.90
65044;DHT22;51617;48.158;16.464;2023-03-20T03:12:00;7.40;91.00
65044;DHT22;51617;48.158;16.464;2023-03-20T03:14:46;7.40;91.70
65044;DHT22;51617;48.158;16.464;2023-03-20T03:17:15;7.40;91.80
65044;DHT22;51617;48.158;16.464;2023-03-20T03:19:45;7.40;91.80
65044;DHT22;51617;48.158;16.464;2023-03-20T03:22:13;7.30;91.90
65044;DHT22;51617;48.158;16.464;2023-03-20T03:24:50;7.30;92.20
65044;DHT22;51617;48.158;16.464;2023-03-20T03:27:30;7.40;92.30
65044;DHT22;51617;48.158;16.464;2023-03-20T03:30:02;7.50;92.70
65044;DHT22;51617;48.158;16.464;2023-03-20T03:33:23;7.50;92.50
65044;DHT22;51617;48.158;16.464;2023-03-20T03:35:29;7.60;92.40
65044;DHT22;51617;48.158;16.464;2023-03-20T03:37:59;7.60;92.30
65044;DHT22;51617;48.158;16.464;2023-03-20T03:40:43;7.60;92.60
65044;DHT22;51617;48.158;16.464;2023-03-20T03:43:52;7.70;92.50
65044;DHT22;51617;48.158;16.464;2023-03-20T03:46:08;7.70;92.60
65044;DHT22;51617;48.158;16.464;2023-03-20T03:48:39;7.80;92.50
65044;DHT22;51617;48.158;16.464;2023-03-20T03:51:12;7.80;92.20
65044;DHT22;51617;48.158;16.464;2023-03-20T03:53:42;7.90;92.20
65044;DHT22;51617;48.158;16.464;2023-03-20T03:56:11;7.80;92.20
65044;DHT22;51617;48.158;16.464;2023-03-20T03:58:42;7.80;92.10
65044;DHT22;51617;48.158;16.464;2023-03-20T04:01:10;7.80;92.40
65044;DHT22;51617;48.158;16.464;2023-03-20T04:03:41;7.90;92.40
65044;DHT22;51617;48.158;16.464;2023-03-20T04:06:09;7.90;91.70
65044;DHT22;51617;48.158;16.464;2023-03-20T04:08:39;7.80;92.50
65044;DHT22;51617;48.158;16.464;2023-03-20T04:11:04;7.70;91.50
65044;DHT22;51617;48.158;16.464;2023-03-20T04:13:30;7.50;91.20
65044;DHT22;51617;48.158;16.464;2023-03-20T04:15:56;7.40;91.30
65044;DHT22;51617;48.158;16.464;2023-03-20T04:18:22;7.20;91.70
65044;DHT22;51617;48.158;16.464;2023-03-20T04:20:48;7.10;92.00
65044;DHT22;51617;48.158;16.464;2023-03-20T04:23:14;7.10;92.20
65044;DHT22;51617;48.158;16.464;2023-03-20T04:25:40;7.20;92.40
65044;DHT22;51617;48.158;16.464;2023-03-20T04:28:06;7.20;92.50
65044;DHT22;51617;48.158;16.464;2023-03-20T04:30:32;7.20;92.60
65044;DHT22;51617;48.158;16.464;2023-03-20T04:32:57;7.20;92.60
65044;DHT22;51617;48.158;16.464;2023-03-20T04:35:23;7.20;92.70
65044;DHT22;51617;48.158;16.464;2023-03-20T04:37:49;7.30;92.70
65044;DHT22;51617;48.158;16.464;2023-03-20T04:40:15;7.30;92.30
65044;DHT22;51617;48.158;16.464;2023-03-20T04:42:41;7.20;92.20
65044;DHT22;51617;48.158;16.464;2023-03-20T04:45:07;7.20;92.20
65044;DHT22;51617;48.158;16.464;2023-03-20T04:47:33;7.20;92.10
65044;DHT22;51617;48.158;16.464;2023-03-20T04:49:59;7.10;92.50
65044;DHT22;51617;48.158;16.464;2023-03-20T04:52:25;7.10;92.10
65044;DHT22;51617;48.158;16.464;2023-03-20T04:54:50;7.00;92.30
65044;DHT22;51617;48.158;16.464;2023-03-20T04:57:16;7.00;92.40
65044;DHT22;51617;48.158;16.464;2023-03-20T04:59:42;7.00;92.50
65044;DHT22;51617;48.158;16.464;2023-03-20T05:02:07;7.00;92.90
65044;DHT22;51617;48.158;16.464;2023-03-20T05:04:33;7.10;92.90
65044;DHT22;51617;48.158;16.464;2023-03-20T05:06:59;7.10;93.00
65044;DHT22;51617;48.158;16.464;2023-03-20T05:09:25;7.20;92.90
65044;DHT22;51617;48.158;16.464;2023-03-20T05:11:51;7.20;92.90
65044;DHT22;51617;48.158;16.464;2023-03-20T05:14:17;7.00;92.70
65044;DHT22;51617;48.158;16.464;2023-03-20T05:16:43;6.90;93.00
65044;DHT22;51617;48.158;16.464;2023-03-20T05:19:08;7.00;93.20
65044;DHT22;51617;48.158;16.464;2023-03-20T05:21:34;7.00;93.30
65044;DHT22;51617;48.158;16.464;2023-03-20T05:24:00;7.00;93.40
65044;DHT22;51617;48.158;16.464;2023-03-20T05:26:26;7.10;93.30
65044;DHT22;51617;48.158;16.464;2023-03-20T05:28:52;7.20;93.50
65044;DHT22;51617;48.158;16.464;2023-03-20T05:31:17;7.20;93.20
65044;DHT22;51617;48.158;16.464;2023-03-20T05:33:43;7.20;92.70
65044;DHT22;51617;48.158;16.464;2023-03-20T05:36:09;7.10;92.80
65044;DHT22;51617;48.158;16.464;2023-03-20T05:38:35;7.10;93.20
65044;DHT22;51617;48.158;16.464;2023-03-20T05:41:01;7.20;93.40
65044;DHT22;51617;48.158;16.464;2023-03-20T05:43:27;7.20;93.50
65044;DHT22;51617;48.158;16.464;2023-03-20T05:45:54;7.30;93.50
65044;DHT22;51617;48.158;16.464;2023-03-20T05:48:21;7.30;93.20
65044;DHT22;51617;48.158;16.464;2023-03-20T05:53:31;7.40;93.60
65044;DHT22;51617;48.158;16.464;2023-03-20T05:55:57;7.60;93.50
65044;DHT22;51617;48.158;16.464;2023-03-20T05:58:22;7.80;93.20
65044;DHT22;51617;48.158;16.464;2023-03-20T06:00:48;7.90;93.30
65044;DHT22;51617;48.158;16.464;2023-03-20T06:03:14;8.10;93.20
65044;DHT22;51617;48.158;16.464;2023-03-20T06:05:39;8.20;93.00
65044;DHT22;51617;48.158;16.464;2023-03-20T06:08:05;8.20;92.80
65044;DHT22;51617;48.158;16.464;2023-03-20T06:10:31;8.20;92.90
65044;DHT22;51617;48.158;16.464;2023-03-20T06:12:58;8.30;92.80
65044;DHT22;51617;48.158;16.464;2023-03-20T06:15:25;8.40;92.70
65044;DHT22;51617;48.158;16.464;2023-03-20T06:17:51;8.60;92.80
65044;DHT22;51617;48.158;16.464;2023-03-20T06:20:17;8.60;92.60
65044;DHT22;51617;48.158;16.464;2023-03-20T06:22:44;8.70;92.60
65044;DHT22;51617;48.158;16.464;2023-03-20T06:25:09;8.90;92.60
65044;DHT22;51617;48.158;16.464;2023-03-20T06:27:35;9.00;92.40
65044;DHT22;51617;48.158;16.464;2023-03-20T06:30:01;9.00;92.30
65044;DHT22;51617;48.158;16.464;2023-03-20T06:32:27;9.10;92.30
65044;DHT22;51617;48.158;16.464;2023-03-20T06:34:52;9.20;92.20
65044;DHT22;51617;48.158;16.464;2023-03-20T06:37:19;9.40;92.10
65044;DHT22;51617;48.158;16.464;2023-03-20T06:39:45;9.50;92.00
65044;DHT22;51617;48.158;16.464;2023-03-20T06:42:10;9.70;91.90
65044;DHT22;51617;48.158;16.464;2023-03-20T06:44:37;9.80;91.70
65044;DHT22;51617;48.158;16.464;2023-03-20T06:47:03;9.90;91.60
65044;DHT22;51617;48.158;16.464;2023-03-20T06:49:29;10.00;91.40
65044;DHT22;51617;48.158;16.464;2023-03-20T06:51:55;10.20;91.20
65044;DHT22;51617;48.158;16.464;2023-03-20T06:54:21;10.20;91.10
65044;DHT22;51617;48.158;16.464;2023-03-20T06:56:46;10.30;91.10
65044;DHT22;51617;48.158;16.464;2023-03-20T06:59:12;10.50;91.10
65044;DHT22;51617;48.158;16.464;2023-03-20T07:01:38;10.60;90.90
65044;DHT22;51617;48.158;16.464;2023-03-20T07:04:04;10.50;91.00
65044;DHT22;51617;48.158;16.464;2023-03-20T07:06:30;10.50;91.20
65044;DHT22;51617;48.158;16.464;2023-03-20T07:08:56;10.50;91.40
65044;DHT22;51617;48.158;16.464;2023-03-20T07:11:22;10.50;91.40
65044;DHT22;51617;48.158;16.464;2023-03-20T07:13:48;10.60;91.40
65044;DHT22;51617;48.158;16.464;2023-03-20T07:16:13;10.80;91.10
65044;DHT22;51617;48.158;16.464;2023-03-20T07:18:39;10.90;90.90
65044;DHT22;51617;48.158;16.464;2023-03-20T07:21:05;11.00;90.70
65044;DHT22;51617;48.158;16.464;2023-03-20T07:23:32;11.10;90.60
65044;DHT22;51617;48.158;16.464;2023-03-20T07:26:01;11.30;90.60
65044;DHT22;51617;48.158;16.464;2023-03-20T07:28:27;11.50;90.70
65044;DHT22;51617;48.158;16.464;2023-03-20T07:30:54;11.60;90.40
65044;DHT22;51617;48.158;16.464;2023-03-20T07:33:20;11.70;90.20
65044;DHT22;51617;48.158;16.464;2023-03-20T07:35:45;11.80;90.20
65044;DHT22;51617;48.158;16.464;2023-03-20T07:38:11;12.00;90.20
65044;DHT22;51617;48.158;16.464;2023-03-20T07:40:37;12.10;90.10
65044;DHT22;51617;48.158;16.464;2023-03-20T07:43:02;12.30;90.00
65044;DHT22;51617;48.158;16.464;2023-03-20T07:45:28;12.50;90.10
65044;DHT22;51617;48.158;16.464;2023-03-20T07:47:54;12.60;90.30
65044;DHT22;51617;48.158;16.464;2023-03-20T07:50:19;12.80;90.20
65044;DHT22;51617;48.158;16.464;2023-03-20T07:52:48;12.90;90.30
65044;DHT22;51617;48.158;16.464;2023-03-20T07:55:16;13.10;90.40
65044;DHT22;51617;48.158;16.464;2023-03-20T07:57:42;13.20;90.50
65044;DHT22;51617;48.158;16.464;2023-03-20T08:00:08;13.50;90.50
65044;DHT22;51617;48.158;16.464;2023-03-20T08:02:34;13.70;90.20
65044;DHT22;51617;48.158;16.464;2023-03-20T08:05:00;13.90;90.00
65044;DHT22;51617;48.158;16.464;2023-03-20T08:07:26;14.00;89.90
65044;DHT22;51617;48.158;16.464;2023-03-20T08:09:54;14.30;89.30
65044;DHT22;51617;48.158;16.464;2023-03-20T08:12:20;14.40;88.50
65044;DHT22;51617;48.158;16.464;2023-03-20T08:14:46;14.60;88.20
65044;DHT22;51617;48.158;16.464;2023-03-20T08:17:12;14.60;87.90
65044;DHT22;51617;48.158;16.464;2023-03-20T08:19:38;14.80;87.60
65044;DHT22;51617;48.158;16.464;2023-03-20T08:22:03;14.80;87.30
65044;DHT22;51617;48.158;16.464;2023-03-20T08:24:29;15.00;86.60
65044;DHT22;51617;48.158;16.464;2023-03-20T08:26:55;15.10;85.70
65044;DHT22;51617;48.158;16.464;2023-03-20T08:29:21;15.20;86.50
65044;DHT22;51617;48.158;16.464;2023-03-20T08:31:47;15.30;85.80
65044;DHT22;51617;48.158;16.464;2023-03-20T08:34:13;15.40;84.80
65044;DHT22;51617;48.158;16.464;2023-03-20T08:36:38;15.40;84.40
65044;DHT22;51617;48.158;16.464;2023-03-20T08:39:05;15.60;84.20
65044;DHT22;51617;48.158;16.464;2023-03-20T08:41:32;15.70;83.40
65044;DHT22;51617;48.158;16.464;2023-03-20T08:43:58;15.90;83.70
65044;DHT22;51617;48.158;16.464;2023-03-20T08:46:24;15.90;82.70
65044;DHT22;51617;48.158;16.464;2023-03-20T08:48:50;15.90;82.30
65044;DHT22;51617;48.158;16.464;2023-03-20T08:51:17;15.90;82.90
65044;DHT22;51617;48.158;16.464;2023-03-20T08:53:43;16.00;83.20
65044;DHT22;51617;48.158;16.464;2023-03-20T08:56:09;16.00;82.60
65044;DHT22;51617;48.158;16.464;2023-03-20T08:58:34;16.10;82.70
65044;DHT22;51617;48.158;16.464;2023-03-20T09:01:04;16.20;82.00
65044;DHT22;51617;48.158;16.464;2023-03-20T09:03:30;16.30;81.10
65044;DHT22;51617;48.158;16.464;2023-03-20T09:05:56;16.40;80.90
65044;DHT22;51617;48.158;16.464;2023-03-20T09:08:22;16.50;80.10
65044;DHT22;51617;48.158;16.464;2023-03-20T09:10:48;16.50;80.10
65044;DHT22;51617;48.158;16.464;2023-03-20T09:13:14;16.60;80.10
65044;DHT22;51617;48.158;16.464;2023-03-20T09:15:39;16.50;80.50
65044;DHT22;51617;48.158;16.464;2023-03-20T09:18:05;16.60;79.70
65044;DHT22;51617;48.158;16.464;2023-03-20T09:20:30;16.60;79.80
65044;DHT22;51617;48.158;16.464;2023-03-20T09:22:56;16.70;79.50
65044;DHT22;51617;48.158;16.464;2023-03-20T09:25:22;16.60;79.30
65044;DHT22;51617;48.158;16.464;2023-03-20T09:27:52;16.60;79.40
65044;DHT22;51617;48.158;16.464;2023-03-20T09:30:20;16.70;79.10
65044;DHT22;51617;48.158;16.464;2023-03-20T09:32:48;16.70;79.00
65044;DHT22;51617;48.158;16.464;2023-03-20T09:35:13;16.60;78.70
65044;DHT22;51617;48.158;16.464;2023-03-20T09:37:39;16.60;79.10
65044;DHT22;51617;48.158;16.464;2023-03-20T09:40:05;16.50;78.70
65044;DHT22;51617;48.158;16.464;2023-03-20T09:55:39;17.10;78.00
65044;DHT22;51617;48.158;16.464;2023-03-20T09:58:24;17.20;77.80
65044;DHT22;51617;48.158;16.464;2023-03-20T10:00:51;17.40;75.30
65044;DHT22;51617;48.158;16.464;2023-03-20T10:03:36;17.50;75.70
65044;DHT22;51617;48.158;16.464;2023-03-20T10:06:06;17.60;75.10
65044;DHT22;51617;48.158;16.464;2023-03-20T10:08:36;17.50;74.70
65044;DHT22;51617;48.158;16.464;2023-03-20T10:11:33;17.50;75.00
65044;DHT22;51617;48.158;16.464;2023-03-20T10:19:23;17.60;73.70
65044;DHT22;51617;48.158;16.464;2023-03-20T10:21:50;17.60;74.10
65044;DHT22;51617;48.158;16.464;2023-03-20T10:24:29;17.50;73.90
65044;DHT22;51617;48.158;16.464;2023-03-20T10:27:05;17.60;74.10
65044;DHT22;51617;48.158;16.464;2023-03-20T10:32:36;17.60;72.60
65044;DHT22;51617;48.158;16.464;2023-03-20T10:35:27;17.60;73.00
65044;DHT22;51617;48.158;16.464;2023-03-20T10:40:40;17.70;73.60
65044;DHT22;51617;48.158;16.464;2023-03-20T10:43:20;17.70;74.10
65044;DHT22;51617;48.158;16.464;2023-03-20T10:46:02;17.80;73.20
65044;DHT22;51617;48.158;16.464;2023-03-20T10:48:38;17.80;72.00
65044;DHT22;51617;48.158;16.464;2023-03-20T10:51:11;17.70;71.80
65044;DHT22;51617;48.158;16.464;2023-03-20T10:56:17;17.70;72.20
65044;DHT22;51617;48.158;16.464;2023-03-20T10:58:47;17.90;72.60
65044;DHT22;51617;48.158;16.464;2023-03-20T11:01:14;18.00;71.70
65044;DHT22;51617;48.158;16.464;2023-03-20T11:03:40;18.00;71.60
65044;DHT22;51617;48.158;16.464;2023-03-20T11:06:23;18.00;71.20
65044;DHT22;51617;48.158;16.464;2023-03-20T11:08:51;18.00;71.10
65044;DHT22;51617;48.158;16.464;2023-03-20T11:11:22;18.10;70.60
65044;DHT22;51617;48.158;16.464;2023-03-20T11:13:47;18.20;70.80
65044;DHT22;51617;48.158;16.464;2023-03-20T11:18:49;18.30;69.30
65044;DHT22;51617;48.158;16.464;2023-03-20T11:21:25;18.30;69.40
65044;DHT22;51617;48.158;16.464;2023-03-20T11:23:52;18.30;69.40
65044;DHT22;51617;48.158;16.464;2023-03-20T11:26:36;18.30;70.90
65044;DHT22;51617;48.158;16.464;2023-03-20T11:29:07;18.40;69.70
65044;DHT22;51617;48.158;16.464;2023-03-20T11:31:37;18.50;70.00
65044;DHT22;51617;48.158;16.464;2023-03-20T11:36:30;18.40;68.80
65044;DHT22;51617;48.158;16.464;2023-03-20T11:39:06;18.40;69.50
65044;DHT22;51617;48.158;16.464;2023-03-20T11:41:53;18.60;70.20
65044;DHT22;51617;48.158;16.464;2023-03-20T11:49:23;18.60;67.90
65044;DHT22;51617;48.158;16.464;2023-03-20T11:51:49;18.60;68.10
65044;DHT22;51617;48.158;16.464;2023-03-20T11:54:19;18.60;68.20
65044;DHT22;51617;48.158;16.464;2023-03-20T11:56:56;18.70;68.00
65044;DHT22;51617;48.158;16.464;2023-03-20T11:59:32;18.90;67.60
65044;DHT22;51617;48.158;16.464;2023-03-20T12:02:02;18.90;67.00
65044;DHT22;51617;48.158;16.464;2023-03-20T12:04:29;19.00;67.30
65044;DHT22;51617;48.158;16.464;2023-03-20T12:12:21;19.60;67.10
65044;DHT22;51617;48.158;16.464;2023-03-20T12:15:27;19.60;66.90
65044;DHT22;51617;48.158;16.464;2023-03-20T12:24:10;19.30;67.30
65044;DHT22;51617;48.158;16.464;2023-03-20T12:26:53;19.20;68.00
65044;DHT22;51617;48.158;16.464;2023-03-20T12:32:16;19.40;68.00
65044;DHT22;51617;48.158;16.464;2023-03-20T12:34:49;19.30;66.90
65044;DHT22;51617;48.158;16.464;2023-03-20T12:37:15;19.10;66.90
65044;DHT22;51617;48.158;16.464;2023-03-20T12:40:03;19.10;67.80
65044;DHT22;51617;48.158;16.464;2023-03-20T12:45:20;19.10;68.50
65044;DHT22;51617;48.158;16.464;2023-03-20T12:58:57;19.00;68.60
65044;DHT22;51617;48.158;16.464;2023-03-20T13:01:38;18.90;68.90
65044;DHT22;51617;48.158;16.464;2023-03-20T13:06:54;19.00;68.30
65044;DHT22;51617;48.158;16.464;2023-03-20T13:09:42;19.00;67.90
65044;DHT22;51617;48.158;16.464;2023-03-20T13:15:40;19.30;65.80
65044;DHT22;51617;48.158;16.464;2023-03-20T13:18:20;19.20;66.40
65044;DHT22;51617;48.158;16.464;2023-03-20T13:20:54;19.30;67.20
65044;DHT22;51617;48.158;16.464;2023-03-20T13:23:30;19.30;65.80
65044;DHT22;51617;48.158;16.464;2023-03-20T13:37:18;19.70;65.00
65044;DHT22;51617;48.158;16.464;2023-03-20T13:39:58;19.70;65.80
65044;DHT22;51617;48.158;16.464;2023-03-20T13:42:30;19.90;65.10
65044;DHT22;51617;48.158;16.464;2023-03-20T13:45:27;20.00;65.50
65044;DHT22;51617;48.158;16.464;2023-03-20T13:47:52;20.00;65.40
65044;DHT22;51617;48.158;16.464;2023-03-20T13:56:20;19.90;66.50
65044;DHT22;51617;48.158;16.464;2023-03-20T14:04:38;19.60;64.90
65044;DHT22;51617;48.158;16.464;2023-03-20T14:07:27;19.40;65.30
65044;DHT22;51617;48.158;16.464;2023-03-20T14:09:54;19.20;65.00
65044;DHT22;51617;48.158;16.464;2023-03-20T14:12:24;19.20;65.50
65044;DHT22;51617;48.158;16.464;2023-03-20T14:14:58;19.10;65.50
65044;DHT22;51617;48.158;16.464;2023-03-20T14:17:29;19.00;66.10
65044;DHT22;51617;48.158;16.464;2023-03-20T14:19:56;18.90;67.10
65044;DHT22;51617;48.158;16.464;2023-03-20T14:22:33;18.80;67.60
65044;DHT22;51617;48.158;16.464;2023-03-20T14:25:05;18.80;67.90
65044;DHT22;51617;48.158;16.464;2023-03-20T14:27:35;18.90;68.20
65044;DHT22;51617;48.158;16.464;2023-03-20T14:33:05;18.70;67.80
65044;DHT22;51617;48.158;16.464;2023-03-20T14:35:37;18.80;68.30
65044;DHT22;51617;48.158;16.464;2023-03-20T14:43:55;18.60;68.20
65044;DHT22;51617;48.158;16.464;2023-03-20T14:52:34;18.60;68.80
65044;DHT22;51617;48.158;16.464;2023-03-20T14:57:43;18.50;69.60
65044;DHT22;51617;48.158;16.464;2023-03-20T15:00:27;18.50;70.00
65044;DHT22;51617;48.158;16.464;2023-03-20T15:03:07;18.50;69.40
65044;DHT22;51617;48.158;16.464;2023-03-20T15:05:36;18.60;70.00
65044;DHT22;51617;48.158;16.464;2023-03-20T15:08:12;18.70;69.00
65044;DHT22;51617;48.158;16.464;2023-03-20T15:10:55;18.60;69.40
65044;DHT22;51617;48.158;16.464;2023-03-20T15:13:22;18.40;69.60
65044;DHT22;51617;48.158;16.464;2023-03-20T15:15:53;18.50;69.70
65044;DHT22;51617;48.158;16.464;2023-03-20T15:18:21;18.40;69.00
65044;DHT22;51617;48.158;16.464;2023-03-20T15:20:47;18.40;69.50
65044;DHT22;51617;48.158;16.464;2023-03-20T15:23:13;18.20;68.60
65044;DHT22;51617;48.158;16.464;2023-03-20T15:25:46;18.10;69.10
65044;DHT22;51617;48.158;16.464;2023-03-20T15:28:21;18.10;69.40
65044;DHT22;51617;48.158;16.464;2023-03-20T15:30:49;18.10;68.70
65044;DHT22;51617;48.158;16.464;2023-03-20T15:33:25;18.10;68.80
65044;DHT22;51617;48.158;16.464;2023-03-20T15:35:51;18.00;68.80
65044;DHT22;51617;48.158;16.464;2023-03-20T15:38:17;17.90;69.10
65044;DHT22;51617;48.158;16.464;2023-03-20T15:40:44;17.90;68.90
65044;DHT22;51617;48.158;16.464;2023-03-20T15:43:24;17.90;68.60
65044;DHT22;51617;48.158;16.464;2023-03-20T15:45:51;17.80;68.90
65044;DHT22;51617;48.158;16.464;2023-03-20T15:48:21;17.90;68.70
65044;DHT22;51617;48.158;16.464;2023-03-20T15:50:59;17.90;68.70
65044;DHT22;51617;48.158;16.464;2023-03-20T15:53:36;18.00;69.10
65044;DHT22;51617;48.158;16.464;2023-03-20T15:56:06;18.10;68.60
65044;DHT22;51617;48.158;16.464;2023-03-20T15:58:33;18.00;68.40
65044;DHT22;51617;48.158;16.464;2023-03-20T16:01:00;17.90;68.60
65044;DHT22;51617;48.158;16.464;2023-03-20T16:03:27;17.80;68.30
65044;DHT22;51617;48.158;16.464;2023-03-20T16:05:53;17.70;68.00
65044;DHT22;51617;48.158;16.464;2023-03-20T16:08:30;17.60;69.10
65044;DHT22;51617;48.158;16.464;2023-03-20T16:10:59;17.50;68.90
65044;DHT22;51617;48.158;16.464;2023-03-20T16:13:31;17.40;68.80
65044;DHT22;51617;48.158;16.464;2023-03-20T16:15:58;17.40;69.10
65044;DHT22;51617;48.158;16.464;2023-03-20T16:18:24;17.30;69.40
65044;DHT22;51617;48.158;16.464;2023-03-20T16:20:58;17.30;69.60
65044;DHT22;51617;48.158;16.464;2023-03-20T16:26:00;17.10;69.80
65044;DHT22;51617;48.158;16.464;2023-03-20T16:28:27;17.00;70.20
65044;DHT22;51617;48.158;16.464;2023-03-20T16:31:19;16.90;70.50
65044;DHT22;51617;48.158;16.464;2023-03-20T16:33:47;16.80;70.60
65044;DHT22;51617;48.158;16.464;2023-03-20T16:36:18;16.80;71.10
65044;DHT22;51617;48.158;16.464;2023-03-20T16:41:32;16.70;72.00
65044;DHT22;51617;48.158;16.464;2023-03-20T16:44:11;16.70;72.50
65044;DHT22;51617;48.158;16.464;2023-03-20T16:47:03;16.60;72.90
65044;DHT22;51617;48.158;16.464;2023-03-20T16:49:50;16.50;73.60
65044;DHT22;51617;48.158;16.464;2023-03-20T16:52:28;16.50;74.10
65044;DHT22;51617;48.158;16.464;2023-03-20T16:54:58;16.40;74.90
65044;DHT22;51617;48.158;16.464;2023-03-20T16:57:25;16.30;75.40
65044;DHT22;51617;48.158;16.464;2023-03-20T16:59:52;16.30;75.60
65044;DHT22;51617;48.158;16.464;2023-03-20T17:02:31;16.30;75.80
65044;DHT22;51617;48.158;16.464;2023-03-20T17:05:10;16.20;76.00
65044;DHT22;51617;48.158;16.464;2023-03-20T17:07:36;16.10;76.40
65044;DHT22;51617;48.158;16.464;2023-03-20T17:12:41;15.90;77.30
65044;DHT22;51617;48.158;16.464;2023-03-20T17:15:12;15.90;77.20
65044;DHT22;51617;48.158;16.464;2023-03-20T17:17:38;16.00;77.30
65044;DHT22;51617;48.158;16.464;2023-03-20T17:20:06;15.90;77.50
65044;DHT22;51617;48.158;16.464;2023-03-20T17:22:32;15.90;77.80
65044;DHT22;51617;48.158;16.464;2023-03-20T17:24:58;16.00;77.40
65044;DHT22;51617;48.158;16.464;2023-03-20T17:27:25;16.00;77.20
65044;DHT22;51617;48.158;16.464;2023-03-20T17:29:51;15.90;77.60
65044;DHT22;51617;48.158;16.464;2023-03-20T17:32:20;16.00;77.60
65044;DHT22;51617;48.158;16.464;2023-03-20T17:34:48;15.90;78.20
65044;DHT22;51617;48.158;16.464;2023-03-20T17:37:19;15.90;79.00
65044;DHT22;51617;48.158;16.464;2023-03-20T17:39:47;15.90;79.00
65044;DHT22;51617;48.158;16.464;2023-03-20T17:42:24;15.80;79.40
65044;DHT22;51617;48.158;16.464;2023-03-20T17:44:52;15.70;80.20
65044;DHT22;51617;48.158;16.464;2023-03-20T17:47:22;15.70;80.50
65044;DHT22;51617;48.158;16.464;2023-03-20T17:49:49;15.70;81.10
65044;DHT22;51617;48.158;16.464;2023-03-20T17:52:28;15.60;81.70
65044;DHT22;51617;48.158;16.464;2023-03-20T17:54:53;15.60;82.00
65044;DHT22;51617;48.158;16.464;2023-03-20T17:57:25;15.60;82.40
65044;DHT22;51617;48.158;16.464;2023-03-20T17:59:56;15.50;82.50
65044;DHT22;51617;48.158;16.464;2023-03-20T18:02:22;15.50;82.60
65044;DHT22;51617;48.158;16.464;2023-03-20T18:04:49;15.50;83.00
65044;DHT22;51617;48.158;16.464;2023-03-20T18:07:16;15.40;82.80
65044;DHT22;51617;48.158;16.464;2023-03-20T18:09:43;15.40;83.20
65044;DHT22;51617;48.158;16.464;2023-03-20T18:12:10;15.40;83.30
65044;DHT22;51617;48.158;16.464;2023-03-20T18:14:38;15.40;83.50